Time;durP1;ratioP1;P1;durP2;ratioP2;P2;SDS_P1;SDS_P2;PMS_P1;PMS_P2;Temp;Humidity;BMP_temperature;BMP_pressure;BME280_temperature;BME280_humidity;BME280_pressure;Samples;Min_cycle;Max_cycle;Signal;HPM_P1;HPM_P2
2022/02/04 00:04:00;;;;;;;0.60;0.60;;;;;;;4.28;92.83;96753.31;29416;197;64004;-60
2022/02/04 00:04:18;;;;;;;0.50;0.50;;;;;;;4.28;92.89;96753.31;29395;323;63008;-61
2022/02/04 00:20:48;;;;;;;0.52;0.52;;;;;;;4.50;92.38;96772.84;29394;302;64009;-61
2022/02/04 00:21:54;;;;;;;0.60;0.60;;;;;;;4.50;92.44;96766.66;29395;236;63005;-61
2022/02/04 00:23:19;;;;;;;0.50;0.50;;;;;;;4.53;92.43;96766.94;29395;214;63004;-60
2022/02/04 00:23:51;;;;;;;0.57;0.57;;;;;;;4.52;92.63;96762.63;29395;260;63009;-61
2022/02/04 00:24:22;;;;;;;0.60;0.60;;;;;;;4.55;92.31;96770.16;29395;269;63004;-60
2022/02/04 00:24:53;;;;;;;0.60;0.60;;;;;;;4.57;92.26;96761.84;29395;229;63008;-61
2022/02/04 00:25:38;;;;;;;0.60;0.60;;;;;;;4.59;92.37;96771.28;29395;251;63004;-61
2022/02/04 00:26:17;;;;;;;0.60;0.60;;;;;;;4.61;91.92;96774.53;29394;221;64009;-61
2022/02/04 00:26:57;;;;;;;0.60;0.60;;;;;;;4.62;91.99;96769.97;29395;223;63005;-61
2022/02/04 00:27:28;;;;;;;0.60;0.60;;;;;;;4.63;91.97;96768.87;29395;210;63009;-59
2022/02/04 00:28:06;;;;;;;0.55;0.55;;;;;;;4.63;91.61;96774.25;29395;218;63005;-60
2022/02/04 00:28:53;;;;;;;0.60;0.60;;;;;;;4.63;91.65;96772.38;29394;210;64009;-61
2022/02/04 00:29:31;;;;;;;0.60;0.60;;;;;;;4.63;91.91;96768.87;29395;198;63005;-60
2022/02/04 00:30:15;;;;;;;0.60;0.60;;;;;;;4.62;91.96;96768.06;29395;210;63009;-62
2022/02/04 00:30:59;;;;;;;0.60;0.60;;;;;;;4.62;91.71;96768.06;29395;245;63004;-55
2022/02/04 00:31:43;;;;;;;0.60;0.60;;;;;;;4.61;91.83;96769.16;29416;409;64009;-61
2022/02/04 00:32:19;;;;;;;0.60;0.60;;;;;;;4.62;91.85;96773.44;29395;199;63004;-60
2022/02/04 00:32:53;;;;;;;0.50;0.50;;;;;;;4.62;91.51;96770.78;29395;210;63004;-61
2022/02/04 00:33:26;;;;;;;0.60;0.60;;;;;;;4.63;91.87;96766.19;29394;244;64005;-62
2022/02/04 00:34:08;;;;;;;0.50;0.50;;;;;;;4.62;91.59;96768.06;29395;233;63009;-61
2022/02/04 00:34:46;;;;;;;0.55;0.55;;;;;;;4.62;91.72;96776.16;29394;200;64005;-61
2022/02/04 00:36:32;;;;;;;0.50;0.50;;;;;;;4.65;91.87;96767.56;29395;221;63005;-60
2022/02/04 00:37:32;;;;;;;0.50;0.50;;;;;;;4.66;91.47;96776.44;29395;230;63009;-61
2022/02/04 00:38:18;;;;;;;0.60;0.60;;;;;;;4.65;91.71;96778.31;29394;282;64004;-62
2022/02/04 00:38:54;;;;;;;0.60;0.60;;;;;;;4.66;91.29;96777.25;29394;220;64009;-61
2022/02/04 00:39:31;;;;;;;0.50;0.50;;;;;;;4.66;91.28;96771.88;29394;227;64004;-62
2022/02/04 00:40:12;;;;;;;0.50;0.50;;;;;;;4.66;91.06;96773.75;29395;260;63008;-60
2022/02/04 00:40:47;;;;;;;0.60;0.60;;;;;;;4.64;91.00;96779.38;29417;203;63015;-60
2022/02/04 00:41:22;;;;;;;0.60;0.60;;;;;;;4.63;91.08;96777.75;29394;214;64009;-62
2022/02/04 00:41:56;;;;;;;0.50;0.50;;;;;;;4.65;91.57;96780.19;29395;257;63005;-61
2022/02/04 00:42:29;;;;;;;0.50;0.50;;;;;;;4.67;91.11;96778.88;29395;364;63009;-61
2022/02/04 00:43:04;;;;;;;0.50;0.50;;;;;;;4.69;91.08;96771.38;29395;236;63005;-60
2022/02/04 00:43:38;;;;;;;0.52;0.52;;;;;;;4.68;90.92;96777.81;29394;245;64002;-61
2022/02/04 00:44:19;;;;;;;0.60;0.60;;;;;;;4.69;90.92;96782.13;29395;197;63005;-62
2022/02/04 00:44:59;;;;;;;0.60;0.60;;;;;;;4.70;91.18;96774.84;29417;223;63009;-61
2022/02/04 00:45:38;;;;;;;0.60;0.60;;;;;;;4.70;90.86;96775.66;29395;199;63004;-56
2022/02/04 00:47:04;;;;;;;0.60;0.60;;;;;;;4.73;91.01;96777.03;29395;209;63004;-63
2022/02/04 00:47:42;;;;;;;0.60;0.60;;;;;;;4.77;90.61;96782.72;29395;233;63008;-62
2022/02/04 00:48:34;;;;;;;0.50;0.50;;;;;;;4.82;90.04;96780.06;29395;210;63005;-62
2022/02/04 00:49:18;;;;;;;0.60;0.60;;;;;;;4.80;89.33;96777.63;29416;221;64009;-61
2022/02/04 00:50:11;;;;;;;0.60;0.60;;;;;;;4.79;89.48;96780.56;29395;206;63000;-61
2022/02/04 00:50:58;;;;;;;0.60;0.60;;;;;;;4.77;89.72;96788.09;29395;211;63009;-61
2022/02/04 00:51:41;;;;;;;0.60;0.60;;;;;;;4.83;89.66;96781.69;29394;222;64005;-61
2022/02/04 00:52:31;;;;;;;0.60;0.60;;;;;;;4.86;88.97;96784.63;29395;222;63009;-62
2022/02/04 00:53:17;;;;;;;0.50;0.50;;;;;;;4.87;88.99;96788.94;29395;233;63004;-61
2022/02/04 00:55:48;;;;;;;0.55;0.55;;;;;;;4.86;89.12;96791.87;29395;202;63008;-61
2022/02/04 00:56:34;;;;;;;0.60;0.60;;;;;;;4.85;88.90;96790.28;29395;247;63005;-61
2022/02/04 01:13:13;;;;;;;0.60;0.60;;;;;;;4.92;87.87;96801.59;29394;196;64005;-67
2022/02/04 01:26:10;;;;;;;0.60;0.60;;;;;;;4.58;89.03;96799.22;29395;197;63005;-62
2022/02/04 01:26:41;;;;;;;0.50;0.50;;;;;;;4.60;89.40;96799.78;29394;199;64009;-61
2022/02/04 01:27:14;;;;;;;0.60;0.60;;;;;;;4.62;89.33;96797.63;29395;220;63005;-62
2022/02/04 01:28:02;;;;;;;0.57;0.57;;;;;;;4.65;89.04;96802.50;29395;254;63009;-61
2022/02/04 01:28:36;;;;;;;0.60;0.60;;;;;;;4.68;88.90;96807.37;29394;214;64005;-61
2022/02/04 01:29:10;;;;;;;0.60;0.60;;;;;;;4.72;88.45;96803.09;29395;214;63009;-62
2022/02/04 01:30:04;;;;;;;0.60;0.60;;;;;;;4.82;87.76;96809.63;29395;205;63004;-55
2022/02/04 01:30:39;;;;;;;0.50;0.50;;;;;;;4.87;86.99;96806.94;29395;202;63009;-64
2022/02/04 01:31:16;;;;;;;0.50;0.50;;;;;;;4.92;86.54;96807.00;29395;199;63004;-62
2022/02/04 01:31:48;;;;;;;0.60;0.60;;;;;;;4.94;86.33;96804.84;29394;199;64008;-65
2022/02/04 01:32:20;;;;;;;0.60;0.60;;;;;;;4.96;85.89;96808.09;29395;409;63004;-68
2022/02/04 01:32:52;;;;;;;0.60;0.60;;;;;;;4.96;86.00;96800.03;29395;203;63019;-60
2022/02/04 01:33:27;;;;;;;1.23;1.20;;;;;;;4.97;85.90;96801.66;29395;216;63005;-55
2022/02/04 01:33:59;;;;;;;0.60;0.60;;;;;;;4.95;85.61;96799.22;29395;206;63009;-61
2022/02/04 01:34:30;;;;;;;0.50;0.50;;;;;;;4.94;85.70;96794.91;29395;222;63005;-63
2022/02/04 01:35:04;;;;;;;0.50;0.50;;;;;;;4.97;85.86;96798.97;29395;209;63009;-64
2022/02/04 01:35:37;;;;;;;0.60;0.60;;;;;;;4.96;85.47;96798.16;29395;352;63005;-63
2022/02/04 01:36:08;;;;;;;0.60;0.60;;;;;;;4.99;85.63;96802.19;29395;235;63009;-69
2022/02/04 01:36:40;;;;;;;0.60;0.60;;;;;;;5.00;85.13;96803.81;29394;224;64005;-62
2022/02/04 01:37:11;;;;;;;0.50;0.50;;;;;;;4.98;85.13;96796.00;29395;329;63004;-61
2022/02/04 01:37:42;;;;;;;0.55;0.55;;;;;;;4.99;85.60;96805.69;29395;271;63004;-64
2022/02/04 01:38:13;;;;;;;0.60;0.60;;;;;;;5.00;85.59;96798.44;29395;224;63009;-63
2022/02/04 01:38:45;;;;;;;0.70;0.70;;;;;;;4.99;85.17;96796.81;29395;216;63004;-62
2022/02/04 01:39:16;;;;;;;0.50;0.50;;;;;;;4.98;85.43;96800.59;29395;202;63023;-61
2022/02/04 01:39:48;;;;;;;0.50;0.50;;;;;;;5.00;85.21;96806.50;29395;196;63004;-63
2022/02/04 01:40:23;;;;;;;0.70;0.70;;;;;;;5.03;84.90;96797.94;29395;266;63009;-69
2022/02/04 01:40:58;;;;;;;0.50;0.50;;;;;;;5.03;84.96;96793.38;29395;252;63005;-65
2022/02/04 01:41:30;;;;;;;0.50;0.50;;;;;;;5.02;84.76;96801.69;29394;262;64009;-63
2022/02/04 01:42:02;;;;;;;0.50;0.50;;;;;;;5.01;85.19;96797.38;29395;222;63005;-60
2022/02/04 01:42:33;;;;;;;0.50;0.50;;;;;;;4.97;85.17;96798.97;29395;227;63009;-62
2022/02/04 01:43:05;;;;;;;0.60;0.60;;;;;;;4.94;85.38;96794.91;29394;285;64005;-56
2022/02/04 01:43:38;;;;;;;0.50;0.50;;;;;;;4.92;85.59;96801.59;29395;224;63009;-61
2022/02/04 01:44:26;;;;;;;0.50;0.50;;;;;;;4.86;85.49;96802.63;29395;290;63000;-57
2022/02/04 01:44:57;;;;;;;0.50;0.50;;;;;;;4.87;85.96;96804.25;29395;203;63009;-61
2022/02/04 01:45:28;;;;;;;0.60;0.60;;;;;;;4.84;85.72;96802.13;29395;230;63004;-61
2022/02/04 01:46:05;;;;;;;0.60;0.60;;;;;;;4.81;86.12;96803.44;29394;234;64009;-60
2022/02/04 01:46:36;;;;;;;0.50;0.50;;;;;;;4.83;86.03;96803.19;29395;240;63004;-63
2022/02/04 01:47:07;;;;;;;0.60;0.60;;;;;;;4.86;86.10;96802.63;29395;247;63008;-62
2022/02/04 01:47:41;;;;;;;0.50;0.50;;;;;;;4.90;85.66;96806.44;29395;220;63005;-62
2022/02/04 01:48:12;;;;;;;0.60;0.60;;;;;;;4.92;85.71;96807.81;29395;248;63005;-60
2022/02/04 01:48:44;;;;;;;0.60;0.60;;;;;;;4.98;85.00;96796.00;29395;204;63005;-67
2022/02/04 01:49:15;;;;;;;0.60;0.60;;;;;;;5.01;84.92;96795.50;29395;211;63009;-54
2022/02/04 01:49:46;;;;;;;0.60;0.60;;;;;;;5.01;84.75;96800.87;29395;200;63016;-62
2022/02/04 01:50:17;;;;;;;0.60;0.60;;;;;;;4.98;84.86;96796.00;29395;239;63009;-59
2022/02/04 01:50:51;;;;;;;0.60;0.60;;;;;;;4.95;84.91;96801.09;29395;199;63008;-61
2022/02/04 01:51:24;;;;;;;0.50;0.50;;;;;;;4.92;85.41;96801.59;29394;209;64009;-62
2022/02/04 01:51:56;;;;;;;0.50;0.50;;;;;;;4.91;85.38;96805.38;29395;196;63004;-61
2022/02/04 01:52:27;;;;;;;0.50;0.50;;;;;;;4.85;85.54;96807.22;29395;269;63012;-61
2022/02/04 01:53:00;;;;;;;0.60;0.60;;;;;;;4.83;85.88;96803.19;29395;234;63004;-56
2022/02/04 01:53:33;;;;;;;0.60;0.60;;;;;;;4.81;86.11;96799.94;29394;239;64024;-62
2022/02/04 01:54:05;;;;;;;0.60;0.60;;;;;;;4.81;86.20;96805.31;29395;202;63004;-60
2022/02/04 01:54:37;;;;;;;0.50;0.50;;;;;;;4.83;86.06;96803.19;29395;212;63008;-62
2022/02/04 01:55:08;;;;;;;0.50;0.50;;;;;;;4.84;86.03;96802.94;29395;198;63004;-62
2022/02/04 01:55:42;;;;;;;0.50;0.50;;;;;;;4.82;85.92;96801.56;29395;248;63005;-63
2022/02/04 01:56:14;;;;;;;0.60;0.60;;;;;;;4.85;86.13;96798.38;29395;198;63005;-62
2022/02/04 01:56:46;;;;;;;0.60;0.60;;;;;;;4.83;85.97;96795.13;29395;210;63009;-61
2022/02/04 01:57:17;;;;;;;0.50;0.50;;;;;;;4.81;86.06;96799.94;29395;216;63005;-60
2022/02/04 01:57:50;;;;;;;0.50;0.50;;;;;;;4.78;85.87;96805.84;29394;292;64009;-61
2022/02/04 01:58:21;;;;;;;0.60;0.60;;;;;;;4.77;86.48;96801.53;29395;212;63013;-61
2022/02/04 01:58:54;;;;;;;0.50;0.50;;;;;;;4.75;86.53;96801.78;29394;225;64009;-55
2022/02/04 01:59:27;;;;;;;0.60;0.60;;;;;;;4.74;86.58;96804.72;29394;224;64004;-60
2022/02/04 01:59:59;;;;;;;0.60;0.60;;;;;;;4.72;86.81;96802.28;29395;210;63009;-61
2022/02/04 02:00:31;;;;;;;0.60;0.60;;;;;;;4.69;86.67;96800.94;29395;202;63004;-62
2022/02/04 02:01:03;;;;;;;0.60;0.60;;;;;;;4.67;86.58;96797.69;29395;214;63009;-61
2022/02/04 02:01:35;;;;;;;0.50;0.50;;;;;;;4.67;87.08;96802.25;29395;208;63007;-61
2022/02/04 02:02:07;;;;;;;0.50;0.50;;;;;;;4.65;87.17;96797.13;29395;296;63008;-61
2022/02/04 02:02:39;;;;;;;0.50;0.50;;;;;;;4.65;87.19;96799.00;29395;223;63004;-62
2022/02/04 02:03:10;;;;;;;0.60;0.60;;;;;;;4.65;87.31;96796.31;29395;223;63009;-60
2022/02/04 02:03:41;;;;;;;0.50;0.50;;;;;;;4.64;87.57;96800.87;29395;219;63016;-60
2022/02/04 02:04:14;;;;;;;0.50;0.50;;;;;;;4.64;87.59;96806.25;29395;209;63009;-61
2022/02/04 02:04:46;;;;;;;0.50;0.50;;;;;;;4.63;87.55;96798.44;29394;221;64005;-60
2022/02/04 02:05:17;;;;;;;0.50;0.50;;;;;;;4.63;87.78;96799.25;29395;202;63009;-60
2022/02/04 02:05:51;;;;;;;0.50;0.50;;;;;;;4.62;87.75;96797.63;29395;237;63005;-61
2022/02/04 02:06:49;;;;;;;0.50;0.50;;;;;;;4.63;87.60;96798.44;29395;282;63009;-61
2022/02/04 02:07:25;;;;;;;0.50;0.50;;;;;;;4.62;88.12;96799.53;29395;239;63015;-60
2022/02/04 02:08:07;;;;;;;0.50;0.50;;;;;;;4.61;87.64;96806.78;29395;207;63004;-60
2022/02/04 02:08:41;;;;;;;0.50;0.50;;;;;;;4.60;88.01;96805.16;29395;242;63009;-61
2022/02/04 02:09:14;;;;;;;0.50;0.50;;;;;;;4.59;88.09;96808.91;29394;212;64004;-61
2022/02/04 02:09:59;;;;;;;0.50;0.50;;;;;;;4.58;88.30;96804.59;29395;323;63008;-60
2022/02/04 02:10:30;;;;;;;0.50;0.50;;;;;;;4.56;88.11;96798.66;29395;203;63005;-61
2022/02/04 02:11:02;;;;;;;0.60;0.60;;;;;;;4.55;88.44;96810.47;29395;234;63012;-61
2022/02/04 02:11:34;;;;;;;0.50;0.50;;;;;;;4.56;88.19;96804.03;29395;215;63005;-62
2022/02/04 02:12:08;;;;;;;0.50;0.50;;;;;;;4.54;88.48;96800.78;29395;211;63015;-60
2022/02/04 02:13:49;;;;;;;0.50;0.50;;;;;;;4.52;88.36;96802.13;29395;197;63009;-60
2022/02/04 02:14:24;;;;;;;0.60;0.60;;;;;;;4.53;88.67;96796.50;29394;345;64004;-63
2022/02/04 02:35:24;;;;;;;0.50;0.50;;;;;;;4.52;88.38;96797.56;29396;205;63005;-61
2022/02/04 02:36:26;;;;;;;0.55;0.55;;;;;;;4.52;88.16;96796.75;29396;300;63009;-60
2022/02/04 02:42:47;;;;;;;0.60;0.60;;;;;;;4.50;88.63;96788.97;29396;236;63011;-60
2022/02/04 02:44:20;;;;;;;0.50;0.50;;;;;;;4.47;88.44;96799.41;29396;244;63009;-61
2022/02/04 02:46:13;;;;;;;0.50;0.50;;;;;;;4.42;88.44;96800.19;29396;255;63004;-56
2022/02/04 02:46:55;;;;;;;0.60;0.60;;;;;;;4.42;88.59;96796.69;29417;327;64008;-55
2022/02/04 02:47:39;;;;;;;0.60;0.60;;;;;;;4.42;88.75;96800.19;29396;233;63005;-61
2022/02/04 02:55:34;;;;;;;0.60;0.60;;;;;;;4.72;86.28;96795.03;29396;233;63010;-55
2022/02/04 02:56:53;;;;;;;0.60;0.60;;;;;;;4.77;85.92;96801.53;29396;218;63009;-61
2022/02/04 02:59:00;;;;;;;0.60;0.60;;;;;;;4.68;86.14;96793.13;29396;320;63005;-64
2022/02/04 02:59:57;;;;;;;0.55;0.55;;;;;;;4.73;85.72;96793.16;29395;409;64009;-56
2022/02/04 03:01:18;;;;;;;0.50;0.50;;;;;;;4.71;85.76;96785.34;29395;206;64009;-60
2022/02/04 03:01:50;;;;;;;0.50;0.50;;;;;;;4.71;86.17;96790.72;29396;211;63008;-60
2022/02/04 03:02:22;;;;;;;0.60;0.60;;;;;;;4.69;86.30;96789.38;29396;215;63009;-61
2022/02/04 03:02:58;;;;;;;0.60;0.60;;;;;;;4.65;86.25;96789.06;29396;204;63005;-60
2022/02/04 03:03:34;;;;;;;0.50;0.50;;;;;;;4.64;86.16;96792.00;29396;291;63009;-61
2022/02/04 03:04:10;;;;;;;0.60;0.60;;;;;;;4.64;86.39;96794.69;29396;203;63005;-61
2022/02/04 03:04:41;;;;;;;0.50;0.50;;;;;;;4.63;86.60;96788.50;29396;334;63009;-61
2022/02/04 03:05:13;;;;;;;0.52;0.52;;;;;;;4.63;86.46;96787.69;29396;256;63005;-61
2022/02/04 03:05:44;;;;;;;0.60;0.60;;;;;;;4.61;86.82;96796.03;29396;220;63013;-62
2022/02/04 03:06:16;;;;;;;0.60;0.60;;;;;;;4.64;86.96;96795.50;29395;206;64005;-61
2022/02/04 03:06:48;;;;;;;0.60;0.60;;;;;;;4.64;86.56;96794.69;29396;225;63009;-62
2022/02/04 03:07:19;;;;;;;0.60;0.60;;;;;;;4.64;86.88;96792.81;29395;229;64004;-61
2022/02/04 03:07:52;;;;;;;0.60;0.60;;;;;;;4.65;86.66;96794.44;29396;218;63009;-61
2022/02/04 03:08:24;;;;;;;0.60;0.60;;;;;;;4.64;86.78;96792.81;29396;219;63004;-60
2022/02/04 03:08:55;;;;;;;0.55;0.55;;;;;;;4.62;86.77;96792.25;29396;229;63009;-61
2022/02/04 03:09:27;;;;;;;0.50;0.50;;;;;;;4.62;86.62;96796.81;29396;204;63004;-61
2022/02/04 03:09:58;;;;;;;0.60;0.60;;;;;;;4.59;87.12;96798.16;29396;209;63017;-56
2022/02/04 03:10:33;;;;;;;0.52;0.52;;;;;;;4.58;87.26;96795.72;29395;258;64005;-62
2022/02/04 03:11:05;;;;;;;0.50;0.50;;;;;;;4.57;87.28;96799.47;29396;277;63009;-62
2022/02/04 03:11:40;;;;;;;0.80;0.80;;;;;;;4.57;87.29;96799.47;29396;213;63005;-61
2022/02/04 03:12:12;;;;;;;0.60;0.60;;;;;;;4.56;87.52;96798.66;29396;209;63014;-61
2022/02/04 03:12:46;;;;;;;0.50;0.50;;;;;;;4.55;87.38;96801.59;29396;206;63005;-61
2022/02/04 03:13:29;;;;;;;0.50;0.50;;;;;;;4.55;87.55;96791.66;29396;241;63009;-60
2022/02/04 03:14:01;;;;;;;0.60;0.60;;;;;;;4.56;87.43;96798.66;29396;207;63004;-61
2022/02/04 03:14:34;;;;;;;0.50;0.50;;;;;;;4.57;87.59;96800.28;29396;212;63019;-60
2022/02/04 03:15:06;;;;;;;0.50;0.50;;;;;;;4.57;87.64;96799.47;29396;210;63004;-61
2022/02/04 03:15:37;;;;;;;0.50;0.50;;;;;;;4.60;87.36;96799.78;29395;227;64000;-62
2022/02/04 03:16:14;;;;;;;0.50;0.50;;;;;;;4.64;86.87;96795.50;29396;196;63004;-61
2022/02/04 03:16:45;;;;;;;0.60;0.60;;;;;;;4.64;86.69;96797.38;29396;259;63019;-61
2022/02/04 03:17:17;;;;;;;0.50;0.50;;;;;;;4.63;86.80;96803.81;29396;215;63004;-61
2022/02/04 03:18:03;;;;;;;0.50;0.50;;;;;;;4.63;86.81;96796.56;29396;269;64009;-61
2022/02/04 03:18:38;;;;;;;0.50;0.50;;;;;;;4.68;86.43;96796.62;29397;266;63005;-60
2022/02/04 03:19:13;;;;;;;0.50;0.50;;;;;;;4.71;86.11;96795.28;29397;228;63009;-59
2022/02/04 03:19:51;;;;;;;0.60;0.60;;;;;;;4.71;85.93;96804.16;29397;352;63005;-59
2022/02/04 03:20:22;;;;;;;0.60;0.60;;;;;;;4.70;85.83;96805.22;29397;231;63009;-62
2022/02/04 03:20:58;;;;;;;0.60;0.60;;;;;;;4.66;85.86;96800.63;29397;220;63004;-60
2022/02/04 03:21:42;;;;;;;0.60;0.60;;;;;;;4.64;86.00;96803.56;29397;302;63009;-61
2022/02/04 03:22:14;;;;;;;0.50;0.50;;;;;;;4.60;86.15;96802.47;29396;291;64004;-61
2022/02/04 03:22:46;;;;;;;0.50;0.50;;;;;;;4.59;86.28;96814.28;29397;239;63009;-62
2022/02/04 03:23:19;;;;;;;0.60;0.60;;;;;;;4.57;86.49;96802.97;29396;199;64004;-60
2022/02/04 03:23:58;;;;;;;0.50;0.50;;;;;;;4.57;86.54;96802.97;29397;221;63008;-60
2022/02/04 03:24:31;;;;;;;0.50;0.50;;;;;;;4.57;86.33;96800.28;29397;209;63005;-61
2022/02/04 03:25:07;;;;;;;0.55;0.55;;;;;;;4.54;86.35;96806.16;29397;197;63009;-62
2022/02/04 03:25:58;;;;;;;0.50;0.50;;;;;;;4.50;86.63;96805.09;29397;224;63010;-61
2022/02/04 03:26:39;;;;;;;0.50;0.50;;;;;;;4.50;86.45;96810.47;29397;197;63009;-61
2022/02/04 03:27:13;;;;;;;0.50;0.50;;;;;;;4.48;86.61;96804.53;29397;203;63005;-60
2022/02/04 03:27:49;;;;;;;0.50;0.50;;;;;;;4.48;86.74;96807.22;29396;265;64009;-61
2022/02/04 03:28:25;;;;;;;0.50;0.50;;;;;;;4.48;86.77;96814.47;29397;202;63004;-59
2022/02/04 03:28:57;;;;;;;0.50;0.50;;;;;;;4.47;86.92;96804.78;29397;222;63009;-61
2022/02/04 03:29:35;;;;;;;0.50;0.50;;;;;;;4.46;87.15;96809.34;29396;210;64004;-60
2022/02/04 03:30:22;;;;;;;0.60;0.60;;;;;;;4.46;86.99;96809.34;29397;234;63009;-60
2022/02/04 03:30:57;;;;;;;0.60;0.60;;;;;;;4.47;86.98;96805.59;29396;220;63004;-60
2022/02/04 03:31:34;;;;;;;0.50;0.50;;;;;;;4.43;87.07;96809.03;29395;370;64008;-61
2022/02/04 03:32:09;;;;;;;0.50;0.50;;;;;;;4.41;87.27;96813.88;29397;242;63001;-60
2022/02/04 03:32:41;;;;;;;0.60;0.60;;;;;;;4.38;87.63;96807.13;29396;213;63015;-61
2022/02/04 03:33:13;;;;;;;0.50;0.50;;;;;;;4.38;87.70;96807.13;29395;260;64005;-60
2022/02/04 03:33:46;;;;;;;0.50;0.50;;;;;;;4.38;87.80;96807.13;29397;211;63009;-61
2022/02/04 03:34:18;;;;;;;0.60;0.60;;;;;;;4.38;87.78;96807.13;29396;216;63005;-60
2022/02/04 03:34:49;;;;;;;0.60;0.60;;;;;;;4.42;88.05;96807.44;29395;263;64009;-60
2022/02/04 03:35:22;;;;;;;0.50;0.50;;;;;;;4.43;87.41;96809.03;29396;207;63005;-59
2022/02/04 03:35:54;;;;;;;0.60;0.60;;;;;;;4.40;87.27;96805.00;29396;220;63009;-60
2022/02/04 03:36:25;;;;;;;0.50;0.50;;;;;;;4.38;87.46;96810.62;29396;206;63004;-62
2022/02/04 03:36:57;;;;;;;0.65;0.65;;;;;;;4.36;87.73;96814.63;29396;215;63009;-62
2022/02/04 03:37:28;;;;;;;0.60;0.60;;;;;;;4.36;87.61;96806.56;29396;234;63016;-60
2022/02/04 03:38:00;;;;;;;0.50;0.50;;;;;;;4.38;87.97;96807.13;29396;218;63009;-61
2022/02/04 03:38:32;;;;;;;0.50;0.50;;;;;;;4.37;87.80;96811.69;29396;208;63004;-60
2022/02/04 03:39:04;;;;;;;0.50;0.50;;;;;;;4.39;88.18;96808.75;29395;218;64008;-60
2022/02/04 03:39:36;;;;;;;0.60;0.60;;;;;;;4.41;87.88;96805.81;29396;229;63005;-61
2022/02/04 03:40:09;;;;;;;0.50;0.50;;;;;;;4.41;87.97;96809.31;29396;221;63009;-60
2022/02/04 03:40:40;;;;;;;0.60;0.60;;;;;;;4.41;87.58;96811.19;29396;226;63005;-61
2022/02/04 03:41:11;;;;;;;0.60;0.60;;;;;;;4.40;87.34;96806.87;29396;211;63009;-61
2022/02/04 03:41:46;;;;;;;0.60;0.60;;;;;;;4.38;87.46;96807.13;29396;291;63005;-60
2022/02/04 03:42:17;;;;;;;0.60;0.60;;;;;;;4.38;87.84;96807.13;29398;242;63009;-62
2022/02/04 03:42:49;;;;;;;0.50;0.50;;;;;;;4.39;87.66;96808.75;29396;262;63005;-60
2022/02/04 03:43:20;;;;;;;0.60;0.60;;;;;;;4.38;87.74;96805.25;29395;218;64009;-61
2022/02/04 03:43:51;;;;;;;0.50;0.50;;;;;;;4.40;87.96;96807.69;29395;243;64004;-61
2022/02/04 03:44:22;;;;;;;0.50;0.50;;;;;;;4.41;87.82;96812.00;29396;242;63009;-62
2022/02/04 03:44:53;;;;;;;0.57;0.57;;;;;;;4.43;87.95;96817.09;29396;253;63004;-60
2022/02/04 03:45:25;;;;;;;0.60;0.60;;;;;;;4.44;87.53;96811.47;29396;196;63009;-61
2022/02/04 03:45:56;;;;;;;0.60;0.60;;;;;;;4.43;87.55;96811.72;29396;209;63004;-61
2022/02/04 03:46:28;;;;;;;0.50;0.50;;;;;;;4.42;87.59;96807.44;29396;259;63008;-61
2022/02/04 03:47:00;;;;;;;0.50;0.50;;;;;;;4.40;87.37;96810.38;29396;199;63005;-61
2022/02/04 03:47:31;;;;;;;0.50;0.50;;;;;;;4.40;87.31;96806.87;29395;235;64009;-61
2022/02/04 03:48:03;;;;;;;0.57;0.57;;;;;;;4.39;87.46;96808.75;29396;240;63005;-61
2022/02/04 03:48:36;;;;;;;0.50;0.50;;;;;;;4.39;87.85;96811.44;29396;224;63009;-60
2022/02/04 03:49:07;;;;;;;0.60;0.60;;;;;;;4.40;87.84;96806.87;29396;228;63005;-61
2022/02/04 03:49:38;;;;;;;0.50;0.50;;;;;;;4.39;87.65;96808.75;29396;203;63009;-61
2022/02/04 03:50:13;;;;;;;0.50;0.50;;;;;;;4.40;88.04;96810.38;29395;198;64005;-60
2022/02/04 03:50:44;;;;;;;0.50;0.50;;;;;;;4.41;88.05;96806.63;29396;296;63005;-60
2022/02/04 03:51:15;;;;;;;0.50;0.50;;;;;;;4.42;87.99;96812.81;29396;215;63004;-61
2022/02/04 03:51:47;;;;;;;0.50;0.50;;;;;;;4.40;88.03;96806.87;29396;224;63015;-59
2022/02/04 03:52:18;;;;;;;0.50;0.50;;;;;;;4.40;88.15;96810.38;29396;215;63004;-60
2022/02/04 03:52:49;;;;;;;0.50;0.50;;;;;;;4.41;88.10;96806.63;29396;202;63009;-55
2022/02/04 03:53:22;;;;;;;0.50;0.50;;;;;;;4.47;87.97;96815.53;29396;247;63004;-63
2022/02/04 03:53:53;;;;;;;0.57;0.57;;;;;;;4.52;87.06;96808.31;29395;232;64008;-60
2022/02/04 03:54:24;;;;;;;0.50;0.50;;;;;;;4.56;86.30;96806.72;29396;207;63005;-60
2022/02/04 03:54:55;;;;;;;0.50;0.50;;;;;;;4.56;86.34;96814.78;29396;244;63009;-62
2022/02/04 03:55:28;;;;;;;0.50;0.50;;;;;;;4.54;86.14;96805.34;29396;239;63005;-55
2022/02/04 03:56:00;;;;;;;0.50;0.50;;;;;;;4.50;86.22;96805.09;29395;229;64001;-63
2022/02/04 03:56:31;;;;;;;0.50;0.50;;;;;;;4.49;86.34;96806.16;29396;240;63005;-61
2022/02/04 03:57:03;;;;;;;0.50;0.50;;;;;;;4.46;86.69;96809.34;29396;202;63009;-60
2022/02/04 03:57:35;;;;;;;0.60;0.60;;;;;;;4.47;86.64;96810.16;29396;212;63005;-61
2022/02/04 03:58:09;;;;;;;0.50;0.50;;;;;;;4.45;87.05;96807.72;29396;298;63009;-61
2022/02/04 03:58:43;;;;;;;0.50;0.50;;;;;;;4.47;87.25;96802.91;29395;197;64004;-62
2022/02/04 03:59:15;;;;;;;0.57;0.57;;;;;;;4.48;86.88;96809.09;29395;202;64009;-59
2022/02/04 03:59:46;;;;;;;0.50;0.50;;;;;;;4.48;86.88;96807.22;29396;215;63004;-61
2022/02/04 04:00:18;;;;;;;0.50;0.50;;;;;;;4.45;86.95;96813.09;29396;206;63009;-60
2022/02/04 04:00:50;;;;;;;0.52;0.52;;;;;;;4.44;87.18;96811.47;29396;222;63004;-61
2022/02/04 04:01:21;;;;;;;0.90;0.90;;;;;;;4.40;87.50;96804.19;29396;259;63008;-61
2022/02/04 04:01:53;;;;;;;0.50;0.50;;;;;;;4.37;87.30;96803.62;29396;292;63005;-60
2022/02/04 04:02:25;;;;;;;0.50;0.50;;;;;;;4.35;87.67;96808.44;29396;204;63009;-61
2022/02/04 04:02:56;;;;;;;0.50;0.50;;;;;;;4.37;87.56;96810.88;29396;257;63005;-61
2022/02/04 04:03:31;;;;;;;0.75;0.75;;;;;;;4.37;87.68;96816.25;29396;200;63009;-62
2022/02/04 04:04:03;;;;;;;0.65;0.65;;;;;;;4.40;87.92;96813.06;29396;208;63005;-62
2022/02/04 04:04:41;;;;;;;0.52;0.52;;;;;;;4.45;87.64;96814.97;29395;208;64009;-62
2022/02/04 04:05:14;;;;;;;0.50;0.50;;;;;;;4.44;87.46;96811.47;29396;215;63004;-61
2022/02/04 04:05:49;;;;;;;0.50;0.50;;;;;;;4.42;87.46;96810.91;29396;292;63009;-62
2022/02/04 04:06:20;;;;;;;0.60;0.60;;;;;;;4.39;87.39;96819.50;29396;199;63010;-60
2022/02/04 04:06:51;;;;;;;0.50;0.50;;;;;;;4.38;87.38;96817.88;29396;275;63009;-60
2022/02/04 04:07:22;;;;;;;0.50;0.50;;;;;;;4.36;87.63;96823.50;29396;212;63004;-60
2022/02/04 04:07:54;;;;;;;0.50;0.50;;;;;;;4.37;87.58;96822.44;29395;226;64008;-60
2022/02/04 04:08:26;;;;;;;0.60;0.60;;;;;;;4.37;87.61;96816.25;29396;196;63004;-61
2022/02/04 04:08:57;;;;;;;0.50;0.50;;;;;;;4.37;87.70;96821.63;29395;209;64008;-55
2022/02/04 04:09:31;;;;;;;0.60;0.60;;;;;;;4.36;88.02;96815.44;29396;214;63005;-56
2022/02/04 04:10:09;;;;;;;0.52;0.52;;;;;;;4.36;88.05;96820.00;29395;218;64009;-61
2022/02/04 04:10:42;;;;;;;0.50;0.50;;;;;;;4.36;88.11;96820.00;29396;205;63005;-60
2022/02/04 04:11:14;;;;;;;0.50;0.50;;;;;;;4.35;88.15;96815.69;29396;204;63009;-61
2022/02/04 04:11:47;;;;;;;0.50;0.50;;;;;;;4.32;88.08;96819.69;29396;198;63005;-61
2022/02/04 04:12:20;;;;;;;0.62;0.62;;;;;;;4.32;88.39;96824.25;29396;196;63009;-62
2022/02/04 04:12:56;;;;;;;0.50;0.50;;;;;;;4.31;88.38;96819.94;29396;287;63004;-60
2022/02/04 04:13:28;;;;;;;0.60;0.60;;;;;;;4.33;88.65;96823.19;29395;232;64009;-61
2022/02/04 04:14:03;;;;;;;0.50;0.50;;;;;;;4.34;88.37;96822.13;29396;233;63004;-61
2022/02/04 04:14:35;;;;;;;0.60;0.60;;;;;;;4.35;88.66;96823.75;29396;220;63009;-60
2022/02/04 04:15:09;;;;;;;0.60;0.60;;;;;;;4.35;88.33;96826.44;29396;222;63004;-61
2022/02/04 04:15:43;;;;;;;0.50;0.50;;;;;;;4.33;88.36;96824.00;29396;213;63008;-60
2022/02/04 04:16:15;;;;;;;0.50;0.50;;;;;;;4.30;88.51;96810.25;29396;335;63001;-61
2022/02/04 04:16:53;;;;;;;0.50;0.50;;;;;;;4.32;88.46;96822.37;29396;209;63009;-61
2022/02/04 04:17:25;;;;;;;0.55;0.55;;;;;;;4.31;88.29;96817.25;29396;203;63005;-61
2022/02/04 04:17:57;;;;;;;0.50;0.50;;;;;;;4.30;88.56;96824.50;29396;209;63009;-60
2022/02/04 04:18:28;;;;;;;0.50;0.50;;;;;;;4.29;88.73;96822.06;29395;242;64005;-60
2022/02/04 04:18:59;;;;;;;0.50;0.50;;;;;;;4.28;88.66;96829.31;29396;210;63009;-61
2022/02/04 04:19:30;;;;;;;0.60;0.60;;;;;;;4.27;88.52;96826.88;29396;232;63005;-61
2022/02/04 04:20:01;;;;;;;0.60;0.60;;;;;;;4.29;88.87;96825.56;29397;210;63020;-60
2022/02/04 04:20:33;;;;;;;0.50;0.50;;;;;;;4.34;88.47;96827.50;29397;212;63004;-61